Time;durP1;ratioP1;P1;durP2;ratioP2;P2;SDS_P1;SDS_P2;PMS_P1;PMS_P2;Temp;Humidity;BMP_temperature;BMP_pressure;BME280_temperature;BME280_humidity;BME280_pressure;Samples;Min_cycle;Max_cycle;Signal;HPM_P1;HPM_P2
2022/08/28 15:28:11;;;;;;;18.17;8.25;;;;;;;;;;6226192;22;20389;-68
2022/08/28 15:30:40;;;;;;;20.25;7.68;;;;;;;;;;6197272;23;20017;-68
2022/08/28 15:33:08;;;;;;;17.52;8.63;;;;;;;;;;6223734;23;20021;-68
2022/08/28 15:35:36;;;;;;;17.25;8.82;;;;;;;;;;6223644;23;20525;-68
2022/08/28 15:38:04;;;;;;;20.42;10.48;;;;;;;;;;6224196;23;20017;-68
2022/08/28 15:43:19;;;;;;;20.67;8.32;;;;;;;;;;6223570;23;20015;-68
2022/08/28 15:45:46;;;;;;;22.35;8.10;;;;;;;;;;6224695;23;20016;-69
2022/08/28 15:48:14;;;;;;;20.33;7.97;;;;;;;;;;6197472;23;20076;-67
2022/08/28 15:50:42;;;;;;;16.70;7.07;;;;;;;;;;6223605;23;20017;-67
2022/08/28 15:53:10;;;;;;;17.42;7.18;;;;;;;;;;6195984;23;20135;-67
2022/08/28 15:55:37;;;;;;;18.77;9.23;;;;;;;;;;6222783;23;20020;-67
2022/08/28 15:58:06;;;;;;;18.45;6.45;;;;;;;;;;6222477;23;20020;-67
2022/08/28 16:00:40;;;;;;;16.98;6.93;;;;;;;;;;6197981;23;20338;-68
2022/08/28 16:03:08;;;;;;;14.90;6.55;;;;;;;;;;6223161;23;20012;-67
2022/08/28 16:05:37;;;;;;;13.75;6.00;;;;;;;;;;6222218;23;20032;-67
2022/08/28 16:08:07;;;;;;;18.95;7.15;;;;;;;;;;6222564;23;20031;-67
2022/08/28 16:10:35;;;;;;;33.70;22.00;;;;;;;;;;6222764;23;20882;-67
2022/08/28 16:13:05;;;;;;;23.52;8.93;;;;;;;;;;6222091;23;20460;-67
2022/08/28 16:15:33;;;;;;;20.30;7.55;;;;;;;;;;6222655;23;20019;-67
2022/08/28 16:18:01;;;;;;;20.02;8.50;;;;;;;;;;6222626;23;20491;-67
2022/08/28 16:20:28;;;;;;;18.15;7.35;;;;;;;;;;6222092;23;20063;-68
2022/08/28 16:22:58;;;;;;;19.27;7.30;;;;;;;;;;6223659;23;20026;-67
2022/08/28 16:25:26;;;;;;;19.33;8.10;;;;;;;;;;6222829;23;20036;-67
2022/08/28 16:27:55;;;;;;;17.08;6.70;;;;;;;;;;6192623;23;20043;-67
2022/08/28 16:30:22;;;;;;;21.92;7.95;;;;;;;;;;6189022;23;20386;-68
2022/08/28 16:32:50;;;;;;;19.27;7.30;;;;;;;;;;6189433;23;20377;-67
2022/08/28 16:35:20;;;;;;;26.27;8.68;;;;;;;;;;6188806;23;20021;-67
2022/08/28 16:37:49;;;;;;;19.95;6.60;;;;;;;;;;6215220;23;20338;-67
2022/08/28 16:40:16;;;;;;;18.27;7.43;;;;;;;;;;6189397;23;20028;-68
2022/08/28 16:42:44;;;;;;;19.17;6.93;;;;;;;;;;6215427;23;20017;-68
2022/08/28 16:45:17;;;;;;;17.08;6.32;;;;;;;;;;6215620;23;20016;-68
2022/08/28 16:47:45;;;;;;;21.83;6.30;;;;;;;;;;6189038;23;20027;-67
2022/08/28 16:50:13;;;;;;;17.33;6.13;;;;;;;;;;6215134;23;20044;-68
2022/08/28 16:52:41;;;;;;;17.48;5.78;;;;;;;;;;6215041;23;20075;-68
2022/08/28 16:55:09;;;;;;;20.98;12.45;;;;;;;;;;6214961;23;20021;-69
2022/08/28 16:57:40;;;;;;;25.85;16.60;;;;;;;;;;6215267;23;20017;-69
2022/08/28 17:00:13;;;;;;;16.60;7.80;;;;;;;;;;6188642;23;20533;-68
2022/08/28 17:02:41;;;;;;;17.48;8.35;;;;;;;;;;6215078;23;20038;-69
2022/08/28 17:05:10;;;;;;;27.23;9.02;;;;;;;;;;6215233;23;20494;-68
2022/08/28 17:07:38;;;;;;;19.65;8.35;;;;;;;;;;6214892;23;20021;-68
2022/08/28 17:10:07;;;;;;;18.40;9.07;;;;;;;;;;6215251;23;20013;-68
2022/08/28 17:12:35;;;;;;;24.80;10.48;;;;;;;;;;6215065;23;20117;-69
2022/08/28 17:15:03;;;;;;;34.00;13.90;;;;;;;;;;6215114;23;20016;-71
2022/08/28 17:17:30;;;;;;;40.50;14.77;;;;;;;;;;6215200;23;20013;-69
2022/08/28 17:19:58;;;;;;;29.67;12.07;;;;;;;;;;6215483;23;20082;-70
2022/08/28 17:22:31;;;;;;;31.00;11.93;;;;;;;;;;6189397;23;20370;-70
2022/08/28 17:25:00;;;;;;;38.28;17.25;;;;;;;;;;6188953;23;20412;-70
2022/08/28 17:27:31;;;;;;;29.35;13.27;;;;;;;;;;6215531;23;20020;-70
2022/08/28 17:30:00;;;;;;;47.78;25.40;;;;;;;;;;6188467;23;20020;-68
2022/08/28 17:32:28;;;;;;;42.58;15.70;;;;;;;;;;6215004;23;20020;-68
2022/08/28 17:34:55;;;;;;;38.15;14.73;;;;;;;;;;6215211;23;20092;-68
2022/08/28 17:37:23;;;;;;;32.55;13.57;;;;;;;;;;6189221;23;20079;-68
2022/08/28 17:39:52;;;;;;;33.22;13.40;;;;;;;;;;6214868;23;20013;-69
2022/08/28 17:42:20;;;;;;;43.47;21.77;;;;;;;;;;6215681;23;20154;-68
2022/08/28 17:44:47;;;;;;;42.47;14.10;;;;;;;;;;6215214;23;20017;-68
2022/08/28 17:47:15;;;;;;;47.53;21.75;;;;;;;;;;6215071;23;20016;-69
2022/08/28 17:49:43;;;;;;;34.80;14.93;;;;;;;;;;6189214;23;20554;-69
2022/08/28 17:52:10;;;;;;;35.13;21.95;;;;;;;;;;6215015;23;20030;-69
2022/08/28 17:54:38;;;;;;;34.40;20.63;;;;;;;;;;6215159;23;20024;-69
2022/08/28 17:57:06;;;;;;;35.75;20.38;;;;;;;;;;6189377;23;20051;-70
2022/08/28 17:59:34;;;;;;;67.40;49.08;;;;;;;;;;6215035;23;20021;-69
2022/08/28 18:02:01;;;;;;;59.50;37.03;;;;;;;;;;6215111;23;20027;-69
2022/08/28 18:04:29;;;;;;;59.33;39.00;;;;;;;;;;6215060;23;20040;-69
2022/08/28 18:06:57;;;;;;;56.53;43.30;;;;;;;;;;6214663;23;20446;-69
2022/08/28 18:09:24;;;;;;;30.10;16.45;;;;;;;;;;6214905;23;20087;-69
2022/08/28 18:11:52;;;;;;;43.90;28.45;;;;;;;;;;6215243;23;20131;-69
2022/08/28 18:14:20;;;;;;;50.45;36.28;;;;;;;;;;6214833;23;20346;-69
2022/08/28 18:16:47;;;;;;;42.88;24.38;;;;;;;;;;6214744;23;20020;-69
2022/08/28 18:19:15;;;;;;;45.05;27.42;;;;;;;;;;6214914;23;20021;-70
2022/08/28 18:21:43;;;;;;;65.97;46.45;;;;;;;;;;6214381;23;20017;-71
2022/08/28 18:24:11;;;;;;;56.33;36.85;;;;;;;;;;6215357;23;20017;-69
2022/08/28 18:26:40;;;;;;;34.55;17.92;;;;;;;;;;6214187;23;20125;-69
2022/08/28 18:29:07;;;;;;;49.45;32.97;;;;;;;;;;6214871;23;20088;-69
2022/08/28 18:31:35;;;;;;;62.47;40.10;;;;;;;;;;6214833;23;20016;-68
2022/08/28 18:34:03;;;;;;;44.83;27.40;;;;;;;;;;6215001;23;20088;-69
2022/08/28 18:36:30;;;;;;;50.75;27.00;;;;;;;;;;6215202;23;20044;-70
2022/08/28 18:38:58;;;;;;;37.58;16.75;;;;;;;;;;6214668;23;20021;-70
2022/08/28 18:41:26;;;;;;;49.97;33.15;;;;;;;;;;6214975;23;20091;-70
2022/08/28 18:44:10;;;;;;;41.80;24.88;;;;;;;;;;6214921;23;20016;-69
2022/08/28 18:46:38;;;;;;;24.50;11.57;;;;;;;;;;6214829;23;20097;-69
2022/08/28 18:49:06;;;;;;;35.17;19.55;;;;;;;;;;6214626;23;20438;-70
2022/08/28 18:51:33;;;;;;;33.10;16.98;;;;;;;;;;6214325;23;20021;-69
2022/08/28 18:54:01;;;;;;;42.58;22.73;;;;;;;;;;6214548;23;20017;-70
2022/08/28 18:56:31;;;;;;;26.58;15.60;;;;;;;;;;6214343;23;20087;-67
2022/08/28 18:59:00;;;;;;;31.83;14.98;;;;;;;;;;6214435;23;20017;-68
2022/08/28 19:01:28;;;;;;;61.05;44.33;;;;;;;;;;6188194;23;20047;-67
2022/08/28 19:03:55;;;;;;;68.85;48.60;;;;;;;;;;6214951;23;20028;-68
2022/08/28 19:06:23;;;;;;;63.78;44.17;;;;;;;;;;6214675;23;20021;-69
2022/08/28 19:08:51;;;;;;;73.88;53.08;;;;;;;;;;6214364;23;20021;-68
2022/08/28 19:11:18;;;;;;;40.88;27.33;;;;;;;;;;6214538;23;20027;-69
2022/08/28 19:13:46;;;;;;;34.45;17.77;;;;;;;;;;6214313;23;20079;-68
2022/08/28 19:16:17;;;;;;;25.08;12.57;;;;;;;;;;6214282;23;20013;-67
2022/08/28 19:18:45;;;;;;;33.47;20.20;;;;;;;;;;6188055;23;20024;-68
2022/08/28 19:21:18;;;;;;;53.35;37.55;;;;;;;;;;6214295;23;20039;-68
2022/08/28 19:23:46;;;;;;;22.90;10.95;;;;;;;;;;6213898;23;20024;-68
2022/08/28 19:26:23;;;;;;;30.20;13.65;;;;;;;;;;6214142;23;20016;-68
2022/08/28 19:28:51;;;;;;;22.48;10.35;;;;;;;;;;6214461;23;20095;-68
2022/08/28 19:31:19;;;;;;;26.80;14.52;;;;;;;;;;6214085;23;20044;-68
2022/08/28 19:33:46;;;;;;;25.95;16.58;;;;;;;;;;6214859;23;20021;-68
2022/08/28 19:36:14;;;;;;;23.08;13.27;;;;;;;;;;6188159;23;20576;-68
2022/08/28 19:38:42;;;;;;;38.20;22.08;;;;;;;;;;6214756;23;20043;-68
2022/08/28 19:41:10;;;;;;;24.98;13.70;;;;;;;;;;6188569;23;20020;-69
2022/08/28 19:43:38;;;;;;;34.75;23.40;;;;;;;;;;6214637;23;20017;-68
2022/08/28 19:46:27;;;;;;;;;;;;;;;;;;;;;
2022/08/28 19:48:56;;;;;;;25.23;13.00;;;;;;;;;;6214447;23;20020;-68
2022/08/28 19:51:23;;;;;;;23.35;8.80;;;;;;;;;;6214314;23;20024;-69
2022/08/28 19:53:52;;;;;;;19.95;9.15;;;;;;;;;;6189388;23;20047;-69
2022/08/28 19:56:25;;;;;;;21.40;9.35;;;;;;;;;;6214669;23;20020;-68
2022/08/28 19:58:53;;;;;;;26.50;10.88;;;;;;;;;;6214322;23;20013;-67
2022/08/28 20:01:22;;;;;;;20.85;9.57;;;;;;;;;;6214215;23;20438;-68
2022/08/28 20:03:49;;;;;;;27.77;10.45;;;;;;;;;;6189081;23;20557;-67
2022/08/28 20:06:17;;;;;;;30.02;10.50;;;;;;;;;;6216689;23;20056;-67
2022/08/28 20:08:44;;;;;;;48.35;29.65;;;;;;;;;;6216771;23;20098;-68
2022/08/28 20:11:18;;;;;;;62.72;39.80;;;;;;;;;;6216973;23;20087;-67
2022/08/28 20:13:46;;;;;;;25.17;11.57;;;;;;;;;;6216282;23;20024;-68
2022/08/28 20:16:13;;;;;;;35.72;16.38;;;;;;;;;;6189377;23;20051;-70
2022/08/28 20:18:49;;;;;;;32.22;15.93;;;;;;;;;;6189595;23;20550;-68
2022/08/28 20:21:20;;;;;;;34.38;17.17;;;;;;;;;;6190490;23;20449;-68
2022/08/28 20:24:05;;;;;;;40.87;24.87;;;;;;;;;;6216235;23;20523;-68
2022/08/28 20:26:32;;;;;;;29.83;17.02;;;;;;;;;;6216001;23;20254;-68
2022/08/28 20:29:00;;;;;;;34.42;18.90;;;;;;;;;;6216156;23;20021;-68
2022/08/28 20:31:27;;;;;;;29.75;18.42;;;;;;;;;;6215517;23;20027;-69
2022/08/28 20:33:55;;;;;;;45.25;25.50;;;;;;;;;;6189085;23;20048;-68
2022/08/28 20:36:24;;;;;;;35.60;21.05;;;;;;;;;;6215146;23;20013;-69
2022/08/28 20:38:51;;;;;;;42.70;22.75;;;;;;;;;;6215280;23;20016;-68
2022/08/28 20:41:21;;;;;;;49.83;23.80;;;;;;;;;;6216374;23;20438;-69
2022/08/28 20:43:52;;;;;;;42.65;21.50;;;;;;;;;;6190429;23;20104;-68
2022/08/28 20:46:20;;;;;;;36.85;21.10;;;;;;;;;;6189718;23;20378;-68
2022/08/28 20:48:48;;;;;;;45.60;23.10;;;;;;;;;;6216105;23;20016;-68
2022/08/28 20:51:51;;;;;;;42.20;23.00;;;;;;;;;;6216094;23;20059;-68
2022/08/28 20:54:03;;;;;;;40.38;21.90;;;;;;;;;;6216412;23;20071;-68
2022/08/28 20:56:31;;;;;;;42.80;22.42;;;;;;;;;;6216162;23;20013;-69
2022/08/28 20:58:58;;;;;;;39.15;20.60;;;;;;;;;;6216607;23;20012;-68
2022/08/28 21:01:26;;;;;;;44.25;21.80;;;;;;;;;;6216197;23;20027;-68
2022/08/28 21:03:54;;;;;;;70.55;43.97;;;;;;;;;;6190113;23;20039;-68
2022/08/28 21:06:22;;;;;;;49.28;27.48;;;;;;;;;;6217045;23;20020;-69
2022/08/28 21:08:52;;;;;;;38.63;20.02;;;;;;;;;;6216516;23;20024;-69
2022/08/28 21:11:20;;;;;;;37.80;19.33;;;;;;;;;;6216260;23;20017;-68
2022/08/28 21:13:47;;;;;;;45.88;27.58;;;;;;;;;;6216114;23;20016;-68
2022/08/28 21:16:18;;;;;;;42.42;21.50;;;;;;;;;;6189714;23;20389;-68
2022/08/28 21:18:46;;;;;;;40.03;19.13;;;;;;;;;;6215952;23;20446;-68
2022/08/28 21:21:34;;;;;;;30.15;16.77;;;;;;;;;;6215972;23;20099;-68
2022/08/28 21:24:03;;;;;;;38.50;15.80;;;;;;;;;;6189966;23;20075;-68
2022/08/28 21:26:30;;;;;;;44.08;24.48;;;;;;;;;;6216054;23;20075;-68
2022/08/28 21:28:58;;;;;;;24.83;14.00;;;;;;;;;;6216974;23;20024;-67
2022/08/28 21:31:26;;;;;;;36.88;16.02;;;;;;;;;;6189207;23;20335;-68
2022/08/28 21:33:54;;;;;;;36.28;21.52;;;;;;;;;;6217063;23;20099;-68
2022/08/28 21:36:22;;;;;;;44.42;22.05;;;;;;;;;;6217026;23;20104;-67
2022/08/28 21:38:52;;;;;;;32.88;17.42;;;;;;;;;;6217986;23;20051;-67
2022/08/28 21:41:20;;;;;;;35.53;17.08;;;;;;;;;;6216881;23;20020;-68
2022/08/28 21:43:48;;;;;;;42.60;20.95;;;;;;;;;;6191146;23;20020;-68
2022/08/28 21:46:16;;;;;;;45.05;26.33;;;;;;;;;;6215779;23;20027;-68
2022/08/28 21:48:47;;;;;;;41.55;23.38;;;;;;;;;;6190145;23;20020;-67
2022/08/28 21:51:16;;;;;;;54.22;28.98;;;;;;;;;;6216861;23;20071;-67
2022/08/28 21:53:43;;;;;;;40.55;24.35;;;;;;;;;;6216077;23;20450;-67
2022/08/28 21:56:15;;;;;;;41.33;23.98;;;;;;;;;;6215958;23;20135;-68
2022/08/28 21:58:42;;;;;;;44.13;24.58;;;;;;;;;;6215542;23;20501;-67
2022/08/28 22:01:13;;;;;;;60.17;39.45;;;;;;;;;;6215639;23;20032;-68
2022/08/28 22:03:41;;;;;;;72.15;43.20;;;;;;;;;;6215924;23;20017;-67
2022/08/28 22:06:13;;;;;;;46.50;28.73;;;;;;;;;;6215519;23;20469;-67
2022/08/28 22:08:42;;;;;;;43.33;25.60;;;;;;;;;;6215736;23;20016;-68
2022/08/28 22:11:10;;;;;;;36.20;18.75;;;;;;;;;;6215683;23;20016;-68
2022/08/28 22:13:37;;;;;;;46.38;27.50;;;;;;;;;;6216146;23;20016;-68
2022/08/28 22:16:06;;;;;;;47.38;20.40;;;;;;;;;;6215649;23;20095;-68
2022/08/28 22:18:34;;;;;;;44.28;23.70;;;;;;;;;;6215644;23;20347;-67
2022/08/28 22:23:48;;;;;;;31.27;19.00;;;;;;;;;;6215336;23;20039;-67
2022/08/28 22:26:17;;;;;;;40.92;20.52;;;;;;;;;;6215766;23;20043;-67
2022/08/28 22:28:45;;;;;;;48.58;27.65;;;;;;;;;;6215465;23;20021;-67
2022/08/28 22:31:13;;;;;;;37.33;20.77;;;;;;;;;;6215767;23;20020;-67
2022/08/28 22:33:41;;;;;;;48.58;28.58;;;;;;;;;;6215214;23;20024;-67
2022/08/28 22:36:09;;;;;;;29.98;15.43;;;;;;;;;;6188641;23;20019;-69
2022/08/28 22:38:38;;;;;;;39.00;23.10;;;;;;;;;;6215249;23;20611;-68
2022/08/28 22:41:06;;;;;;;29.65;15.35;;;;;;;;;;6215068;23;20020;-67
2022/08/28 22:43:33;;;;;;;24.25;14.00;;;;;;;;;;6215204;23;20047;-67
2022/08/28 22:46:02;;;;;;;29.58;15.38;;;;;;;;;;6188547;23;20040;-67
2022/08/28 22:48:30;;;;;;;29.80;15.35;;;;;;;;;;6188840;23;20099;-67
2022/08/28 22:51:03;;;;;;;24.95;13.20;;;;;;;;;;6215290;23;20023;-67
2022/08/28 22:53:32;;;;;;;30.40;18.55;;;;;;;;;;6215565;23;20016;-67
2022/08/28 22:55:59;;;;;;;24.02;12.60;;;;;;;;;;6215147;23;20442;-67
2022/08/28 22:58:28;;;;;;;40.85;24.08;;;;;;;;;;6215794;23;20013;-67
2022/08/28 23:00:57;;;;;;;43.85;25.05;;;;;;;;;;6215718;23;20092;-66
2022/08/28 23:03:24;;;;;;;40.63;23.38;;;;;;;;;;6215057;23;20409;-66
2022/08/28 23:05:52;;;;;;;33.35;19.77;;;;;;;;;;6187976;23;20021;-68
2022/08/28 23:08:20;;;;;;;30.77;15.95;;;;;;;;;;6215022;23;20434;-68
2022/08/28 23:10:48;;;;;;;40.00;23.30;;;;;;;;;;6214838;23;20016;-68
2022/08/28 23:13:25;;;;;;;33.22;21.08;;;;;;;;;;6215420;23;20017;-68
2022/08/28 23:15:53;;;;;;;39.50;21.33;;;;;;;;;;6215196;23;20023;-67
2022/08/28 23:18:23;;;;;;;45.85;24.77;;;;;;;;;;6188802;23;20061;-67
2022/08/28 23:20:51;;;;;;;47.47;22.42;;;;;;;;;;6164099;23;20025;-68
2022/08/28 23:23:19;;;;;;;38.08;19.70;;;;;;;;;;6215261;23;20017;-67
2022/08/28 23:25:48;;;;;;;42.53;20.23;;;;;;;;;;6215307;23;20017;-67
2022/08/28 23:28:16;;;;;;;40.92;20.17;;;;;;;;;;6215303;23;20092;-67
2022/08/28 23:30:44;;;;;;;34.50;18.85;;;;;;;;;;6215056;23;20046;-67
2022/08/28 23:33:16;;;;;;;30.95;15.50;;;;;;;;;;6190437;23;20027;-67
2022/08/28 23:35:51;;;;;;;28.63;15.27;;;;;;;;;;6190170;23;20021;-67
2022/08/28 23:38:18;;;;;;;22.08;11.85;;;;;;;;;;6189344;23;20099;-67
2022/08/28 23:40:46;;;;;;;26.15;14.43;;;;;;;;;;6217057;23;20362;-67
2022/08/28 23:43:17;;;;;;;47.45;27.60;;;;;;;;;;6216903;23;20016;-67
2022/08/28 23:45:44;;;;;;;37.33;24.08;;;;;;;;;;6216980;23;20020;-67
2022/08/28 23:48:14;;;;;;;29.35;17.77;;;;;;;;;;6217099;23;20075;-67
2022/08/28 23:50:42;;;;;;;48.78;29.23;;;;;;;;;;6216764;23;20047;-67
2022/08/28 23:53:11;;;;;;;26.38;15.80;;;;;;;;;;6217171;23;20024;-67
2022/08/28 23:55:39;;;;;;;30.00;17.17;;;;;;;;;;6216930;23;20024;-67
2022/08/28 23:58:06;;;;;;;31.00;17.65;;;;;;;;;;6216721;23;20391;-67
